^^
Datos históricos de la estación: Murcia-Puente Tocinos
Diario Informe para Enero 24, 2020 Unidades:  Ingés    Métrico   Ambas
Diario Semanal Mensual Anual
  Máxima: Mínima: Promedio:
Temperatura: 58.5 °F 49.5 °F 53.2 °F
Punto de rocio: 50.9 °F 45.7 °F 48.4 °F
Humedad: 94% 74% 84%
Velocidad viento: 6.2mph 0mph 2.5mph
Racha viento: 12mph - -
Viento- - Sur
Presión: 30.2 in 30.1 in -
Precipitación: 0 in    
 
 
Tabla de datos para Enero 24, 2020
Hora Temperatura Punto de rocio Presión Viento Velocidad viento Racha viento Humedad Intensidad lluvia(por hora) Nubes
00:04 51.3 °F 49.6 °F 30.1 in Calm     94% 0 in
00:09 51.3 °F 49.6 °F 30.1 in Calm     94% 0 in
00:14 51.3 °F 49.6 °F 30.1 in Calm     94% 0 in
00:19 51.3 °F 49.6 °F 30.1 in Calm     94% 0 in
00:24 51.3 °F 49.6 °F 30.1 in Calm     94% 0 in
00:29 51.3 °F 49.6 °F 30.1 in Calm     94% 0 in
00:34 51.3 °F 49.6 °F 30.1 in Calm     94% 0 in
00:39 51.3 °F 49.6 °F 30.1 in Calm     94% 0 in
00:44 51.3 °F 49.6 °F 30.1 in Calm     94% 0 in
00:49 51.4 °F 49.8 °F 30.1 in Calm     94% 0 in
00:54 51.4 °F 49.8 °F 30.1 in Calm     93.8% 0 in
00:59 51.4 °F 49.5 °F 30.1 in Calm   4.6 mph 93% 0 in
01:04 51.6 °F 49.6 °F 30.1 in Oeste 1 mph 5 mph 93% 0 in
01:09 51.6 °F 49.6 °F 30.1 in Oeste 2 mph 5 mph 92.8% 0 in
01:14 51.6 °F 49.5 °F 30.1 in Oeste 1.7 mph 3 mph 92% 0 in
01:19 51.4 °F 49.3 °F 30.1 in Oeste 1.4 mph 1.4 mph 92% 0 in
01:24 51.4 °F 49.3 °F 30.1 in Oeste 0.8 mph 3.6 mph 92% 0 in
01:29 51.4 °F 49.1 °F 30.1 in Calm   4 mph 92% 0 in
01:34 51.3 °F 49.1 °F 30.1 in Sur 1.1 mph 4.6 mph 92% 0 in
01:39 51.3 °F 48.9 °F 30.1 in Sur 2.4 mph 5 mph 92% 0 in
01:44 51.3 °F 48.9 °F 30.1 in Sur 2.4 mph 5 mph 92% 0 in
01:49 51.3 °F 48.9 °F 30.1 in Sur 2.4 mph 5.9 mph 92% 0 in
01:54 51.1 °F 48.9 °F 30.1 in SSO 2.4 mph 6 mph 92.3% 0 in
01:59 51.1 °F 49.1 °F 30.1 in SSO 2.4 mph 5 mph 93% 0 in
02:04 51.1 °F 49.1 °F 30.1 in SSO 2.1 mph 4.6 mph 93% 0 in
02:09 51.1 °F 49.1 °F 30.1 in SO 1.8 mph 5 mph 93% 0 in
02:14 51.1 °F 49.1 °F 30.1 in SO 1.8 mph 4.6 mph 93% 0 in
02:19 51.1 °F 49.1 °F 30.1 in SSO 1.8 mph 5 mph 93% 0 in
02:24 51.1 °F 49.1 °F 30.1 in SSO 2.2 mph 5.2 mph 93% 0 in
02:29 51.1 °F 49.1 °F 30.1 in SO 2.9 mph 5.9 mph 93% 0 in
02:34 51.1 °F 49.1 °F 30.1 in OSO 3 mph 6 mph 93% 0 in
02:39 51.1 °F 49.1 °F 30.1 in OSO 3.1 mph 6 mph 93% 0 in
02:44 51.1 °F 49.1 °F 30.1 in OSO 2.5 mph 4 mph 93% 0 in
02:49 51.1 °F 49.1 °F 30.1 in OSO 1.8 mph 3 mph 93% 0 in
02:54 51.1 °F 49.1 °F 30.1 in OSO 1.1 mph 1.4 mph 93% 0 in
02:59 51.1 °F 48.9 °F 30.1 in Calm   5.2 mph 92.8% 0 in
03:04 50.7 °F 48.6 °F 30.1 in SSE 1.4 mph 5 mph 92% 0 in
03:09 50.7 °F 48.4 °F 30.1 in SSE 2.9 mph 5.4 mph 92% 0 in
03:14 50.5 °F 48.4 °F 30.1 in Sur 3 mph 6 mph 92% 0 in
03:19 50.5 °F 48.6 °F 30.1 in SSE 3.1 mph 6 mph 92.8% 0 in
03:24 50.4 °F 48.4 °F 30.1 in Sur 3.1 mph 6 mph 93% 0 in
03:29 50.4 °F 48.4 °F 30.1 in SSO 3.1 mph 5 mph 93% 0 in
03:34 50.4 °F 48.4 °F 30.1 in SSO 2.8 mph 5.2 mph 93% 0 in
03:39 50.4 °F 48.4 °F 30.1 in Sur 2.4 mph 5.8 mph 93% 0 in
03:44 50.4 °F 48.4 °F 30.1 in SSO 2.7 mph 6 mph 92.7% 0 in
03:49 50.4 °F 48 °F 30.1 in Sur 3.1 mph 6 mph 92% 0 in
03:54 50.4 °F 48 °F 30.1 in SSO 3.1 mph 5.2 mph 92% 0 in
03:59 50.4 °F 48 °F 30.1 in Sur 3.1 mph 5 mph 92% 0 in
04:04 50.4 °F 48 °F 30.1 in SSE 3 mph 5 mph 92% 0 in
04:09 50.4 °F 48 °F 30.1 in SSE 2.9 mph 5 mph 92% 0 in
04:14 50.4 °F 48 °F 30.1 in Sur 2.4 mph 5.2 mph 92% 0 in
04:19 50.4 °F 48 °F 30.1 in SSO 1.8 mph 5.4 mph 92% 0 in
04:24 50.4 °F 48 °F 30.1 in SO 2.3 mph 6 mph 92% 0 in
04:29 50.4 °F 48 °F 30.1 in SO 2.9 mph 5 mph 92% 0 in
04:34 50.4 °F 48 °F 30.1 in SSO 2.2 mph 5.2 mph 92% 0 in
04:39 50.4 °F 47.8 °F 30.1 in SSE 1.4 mph 5 mph 91.4% 0 in
04:44 50.2 °F 47.7 °F 30.1 in Sur 1.9 mph 5 mph 91% 0 in
04:49 50.2 °F 47.7 °F 30.1 in Sur 2.4 mph 5 mph 91% 0 in
04:54 50.2 °F 47.7 °F 30.1 in Sur 2.7 mph 6.4 mph 91% 0 in
04:59 50 °F 47.7 °F 30.1 in Sur 3.1 mph 7 mph 91% 0 in
05:04 50 °F 47.5 °F 30.1 in Sur 3.5 mph 6 mph 91% 0 in
05:09 49.8 °F 47.1 °F 30.1 in Sur 4 mph 6 mph 90.3% 0 in
05:14 49.8 °F 46.9 °F 30.1 in SSE 3.6 mph 6 mph 90% 0 in
05:19 49.8 °F 46.9 °F 30.1 in SSE 3.1 mph 6.2 mph 90% 0 in
05:24 49.8 °F 47.1 °F 30.1 in Sur 3.3 mph 6 mph 90% 0 in
05:29 49.8 °F 47.1 °F 30.1 in SSO 3.6 mph 5 mph 90% 0 in
05:34 50 °F 47.1 °F 30.1 in SSE 2.9 mph 4.6 mph 89.6% 0 in
05:39 50 °F 46.9 °F 30.1 in Sur 2 mph 7.4 mph 89% 0 in
05:44 50.2 °F 47.1 °F 30.1 in SSO 3.1 mph 8.5 mph 89% 0 in
05:49 50.2 °F 47.1 °F 30.1 in SO 4.3 mph 9 mph 89% 0 in
05:54 50.4 °F 47.1 °F 30.1 in OSO 4 mph 5.8 mph 89% 0 in
05:59 50.4 °F 47.1 °F 30.1 in Oeste 3.6 mph 6 mph 89% 0 in
06:04 50.4 °F 47.1 °F 30.1 in OSO 3.2 mph 5.9 mph 88.8% 0 in
06:09 50.4 °F 46.9 °F 30.1 in OSO 2.9 mph 6 mph 88.1% 0 in
06:14 50.4 °F 46.9 °F 30.1 in SO 3.4 mph 6 mph 88% 0 in
06:19 50.2 °F 46.8 °F 30.1 in SO 4 mph 5.2 mph 88% 0 in
06:24 50.2 °F 46.8 °F 30.1 in SO 3.5 mph 5 mph 88% 0 in
06:29 50.2 °F 46.8 °F 30.1 in SO 2.9 mph 5 mph 88% 0 in
06:34 50.4 °F 46.9 °F 30.1 in SSO 2.7 mph 4.6 mph 88% 0 in
06:39 50.4 °F 46.9 °F 30.1 in SSE 2.4 mph 5.2 mph 88% 0 in
06:44 50.4 °F 46.9 °F 30.1 in SE 2.4 mph 5.8 mph 88% 0 in
06:49 50.4 °F 46.8 °F 30.1 in SSE 2.4 mph 6 mph 88% 0 in
06:54 50.2 °F 46.8 °F 30.1 in SSE 2.6 mph 6.2 mph 88% 0 in
06:59 49.8 °F 46.4 °F 30.1 in SSE 2.9 mph 6 mph 88.2% 0 in
07:04 49.6 °F 46.6 °F 30.1 in SSO 3 mph 6 mph 89% 0 in
07:09 49.6 °F 46.6 °F 30.1 in SSO 3.1 mph 5 mph 89% 0 in
07:14 49.6 °F 46.6 °F 30.1 in Sur 2.8 mph 5 mph 89% 0 in
07:19 49.6 °F 46.6 °F 30.1 in SSE 2.4 mph 5.2 mph 89% 0 in
07:24 49.6 °F 46.6 °F 30.1 in SSE 2.7 mph 5.2 mph 89% 0 in
07:29 49.6 °F 46.6 °F 30.1 in SSE 3.1 mph 6.2 mph 89% 0 in
07:34 49.6 °F 46.6 °F 30.1 in Sur 3.4 mph 6 mph 89% 0 in
07:39 49.6 °F 46.4 °F 30.1 in SSE 3.6 mph 6 mph 88.7% 0 in
07:44 49.6 °F 46.2 °F 30.1 in SSE 3.4 mph 6.9 mph 88.2% 0 in
07:49 49.5 °F 46 °F 30.1 in Sur 3.1 mph 9.2 mph 88% 0 in
07:54 49.5 °F 46 °F 30.1 in SSE 4.3 mph 9.2 mph 88% 0 in
07:59 49.5 °F 46 °F 30.1 in Sur 5.9 mph 9.7 mph 88% 0 in
08:04 49.5 °F 46 °F 30.1 in SSO 5.3 mph 11.2 mph 88% 0 in
08:09 49.6 °F 46 °F 30.1 in SSO 4.7 mph 12 mph 87.8% 0 in
08:14 49.6 °F 45.9 °F 30.1 in SSO 4.7 mph 12 mph 87% 0 in
08:19 49.6 °F 45.9 °F 30.1 in SO 4.7 mph 7 mph 87% 0 in
08:24 49.6 °F 45.9 °F 30.1 in SSO 3.6 mph 5.4 mph 87% 0 in
08:29 49.6 °F 45.9 °F 30.1 in Sur 2.4 mph 6.2 mph 87% 0 in
08:34 49.6 °F 45.7 °F 30.1 in SSO 2.9 mph 6.9 mph 86.2% 0 in
08:39 49.6 °F 45.7 °F 30.1 in SSO 3.6 mph 7 mph 86% 0 in
08:44 49.8 °F 45.9 °F 30.1 in Sur 3.6 mph 7 mph 86% 0 in
08:49 49.8 °F 45.9 °F 30.1 in Sur 3.6 mph 5 mph 86% 0 in
08:54 49.8 °F 45.9 °F 30.1 in SSO 3.3 mph 6.2 mph 86% 0 in
08:59 50 °F 46 °F 30.1 in ENE 2.9 mph 6 mph 86% 0 in
09:04 50.2 °F 46 °F 30.1 in SSE 2.7 mph 5 mph 86% 0 in
09:09 50.2 °F 46.2 °F 30.1 in SSE 2.4 mph 5 mph 86% 0 in
09:14 50.2 °F 46.2 °F 30.1 in SSE 2.2 mph 5 mph 86% 0 in
09:19 50 °F 46 °F 30.1 in SSE 2 mph 5 mph 86% 0 in
09:24 50 °F 46 °F 30.1 in SSE 2.2 mph 4.7 mph 86% 0 in
09:29 49.8 °F 45.9 °F 30.1 in Sur 2.4 mph 5 mph 86% 0 in
09:34 49.8 °F 45.9 °F 30.1 in Sur 2.7 mph 5.2 mph 86.1% 0 in
09:39 49.8 °F 46 °F 30.1 in Sur 3.1 mph 5.2 mph 86.9% 0 in
09:44 49.8 °F 46.2 °F 30.1 in Sur 3.1 mph 5.9 mph 87% 0 in
09:49 50 °F 46.2 °F 30.1 in Sur 3.1 mph 6 mph 87% 0 in
09:54 50.2 °F 46.4 °F 30.1 in SSE 3.5 mph 6.9 mph 86.8% 0 in
09:59 50.2 °F 46.2 °F 30.1 in Sur 4 mph 8.7 mph 86% 0 in
10:04 50.2 °F 46 °F 30.1 in SSE 4.3 mph 9.2 mph 85.6% 0 in
10:09 50.4 °F 46 °F 30.2 in Sur 4.7 mph 9 mph 85% 0 in
10:14 50.4 °F 46 °F 30.2 in SSO 4.9 mph 8.5 mph 85% 0 in
10:19 50.4 °F 45.9 °F 30.2 in Sur 5.2 mph 9 mph 84.4% 0 in
10:24 50.5 °F 45.9 °F 30.2 in Sur 4.8 mph 7 mph 84% 0 in
10:29 50.5 °F 45.9 °F 30.2 in SSO 4.3 mph 7 mph 84% 0 in
10:34 50.5 °F 45.9 °F 30.2 in SSO 4.3 mph 7 mph 84% 0 in
10:39 50.7 °F 46 °F 30.2 in SO 4.3 mph 7.4 mph 84% 0 in
10:44 50.7 °F 46.2 °F 30.2 in SO 4.3 mph 7 mph 84% 0 in
10:49 50.9 °F 46 °F 30.2 in SSO 4.3 mph 7.4 mph 83.3% 0 in
10:54 51.1 °F 46.2 °F 30.2 in SSO 4.2 mph 7 mph 83.4% 0 in
10:59 51.1 °F 46 °F 30.2 in Sur 4 mph 7 mph 83% 0 in
11:04 51.3 °F 46.2 °F 30.2 in Sur 4.3 mph 7 mph 83% 0 in
11:09 51.3 °F 46.2 °F 30.2 in Sur 4.7 mph 8.1 mph 83% 0 in
11:14 51.4 °F 46.4 °F 30.2 in SSO 4.7 mph 8.5 mph 83% 0 in
11:19 51.4 °F 46.4 °F 30.2 in SSO 4.7 mph 10.4 mph 83% 0 in
11:24 51.4 °F 46.4 °F 30.2 in SSO 5.4 mph 10 mph 83% 0 in
11:29 51.6 °F 46.6 °F 30.2 in SSO 6.2 mph 9 mph 83% 0 in
11:34 51.6 °F 46.6 °F 30.2 in SSE 5.3 mph 7 mph 83% 0 in
11:39 51.8 °F 46.6 °F 30.2 in SSE 4.3 mph 9.2 mph 82.7% 0 in
11:44 51.6 °F 46.2 °F 30.2 in Sur 4.8 mph 9.7 mph 82% 0 in
11:49 51.6 °F 46.2 °F 30.2 in Sur 5.4 mph 10 mph 82% 0 in
11:54 51.6 °F 46.2 °F 30.2 in SSE 5.1 mph 8.5 mph 82% 0 in
11:59 51.6 °F 46.2 °F 30.2 in SE 4.7 mph 9 mph 81.8% 0 in
12:04 51.8 °F 46.6 °F 30.2 in SE 5 mph 8 mph 82% 0 in
12:09 52 °F 46.4 °F 30.2 in SSE 5.2 mph 8.1 mph 81% 0 in
12:14 52.2 °F 46.6 °F 30.2 in SE 4.7 mph 8 mph 81% 0 in
12:19 52.3 °F 46.6 °F 30.2 in SSE 4 mph 5 mph 80.7% 0 in
12:24 52.5 °F 46.9 °F 30.2 in SE 3.3 mph 5 mph 81% 0 in
12:29 53.1 °F 47.1 °F 30.2 in SSO 2.4 mph 4.6 mph 80.3% 0 in
12:34 53.4 °F 47.3 °F 30.2 in SO 2.2 mph 5.8 mph 79.8% 0 in
12:39 53.8 °F 47.5 °F 30.2 in OSO 2 mph 6 mph 79% 0 in
12:44 54.1 °F 47.5 °F 30.2 in Oeste 2.4 mph 5.9 mph 78.3% 0 in
12:49 54.5 °F 47.7 °F 30.2 in Oeste 2.9 mph 6 mph 77.4% 0 in
12:54 54.9 °F 47.7 °F 30.2 in ONO 2.9 mph 6 mph 77% 0 in
12:59 55 °F 47.7 °F 30.1 in Oeste 2.9 mph 5 mph 76.1% 0 in
13:04 55.4 °F 48 °F 30.1 in Oeste 2.5 mph 5 mph 76% 0 in
13:09 55.8 °F 48.2 °F 30.1 in NNO 2 mph 5.2 mph 75.6% 0 in
13:14 55.9 °F 48 °F 30.1 in ONO 2.2 mph 5.4 mph 75% 0 in
13:19 55.9 °F 48.2 °F 30.1 in ONO 2.4 mph 6 mph 75% 0 in
13:24 55.8 °F 47.8 °F 30.1 in ONO 2.9 mph 6.2 mph 74.6% 0 in
13:29 55.8 °F 48 °F 30.1 in Oeste 3.6 mph 6 mph 75% 0 in
13:34 55.8 °F 48.2 °F 30.1 in NO 3.8 mph 7.4 mph 75.8% 0 in
13:39 55.9 °F 48 °F 30.1 in ONO 4 mph 7 mph 75.1% 0 in
13:44 55.9 °F 48 °F 30.1 in Oeste 3.6 mph 6.9 mph 75% 0 in
13:49 55.9 °F 48 °F 30.1 in Oeste 3.1 mph 7 mph 75% 0 in
13:54 56.1 °F 48.4 °F 30.1 in NNO 3.1 mph 6 mph 75.4% 0 in
13:59 56.3 °F 48.4 °F 30.1 in ONO 3.1 mph 6.2 mph 74.9% 0 in
14:04 56.5 °F 48.6 °F 30.1 in Oeste 3.1 mph 6.2 mph 74.8% 0 in
14:09 56.5 °F 48.6 °F 30.1 in Oeste 3.1 mph 6.9 mph 75% 0 in
14:14 56.5 °F 48.6 °F 30.1 in OSO 3.6 mph 7 mph 75% 0 in
14:19 56.5 °F 48.6 °F 30.1 in ONO 4.3 mph 7 mph 74.7% 0 in
14:24 56.5 °F 48.6 °F 30.1 in Oeste 3.7 mph 5.4 mph 74.6% 0 in
14:29 56.7 °F 48.7 °F 30.1 in OSO 2.9 mph 6.9 mph 74.8% 0 in
14:34 56.5 °F 48.4 °F 30.1 in SO 3.2 mph 8.1 mph 74% 0 in
14:39 56.5 °F 48.2 °F 30.1 in SO 3.6 mph 8 mph 74% 0 in
14:44 56.5 °F 48.4 °F 30.1 in OSO 4.3 mph 7 mph 74% 0 in
14:49 56.7 °F 48.6 °F 30.1 in SO 5.2 mph 9.2 mph 74.8% 0 in
14:54 56.7 °F 48.6 °F 30.1 in OSO 4.8 mph 9.2 mph 74% 0 in
14:59 56.7 °F 48.6 °F 30.1 in OSO 4.3 mph 9 mph 74% 0 in
15:04 56.7 °F 48.6 °F 30.1 in OSO 4.2 mph 7.4 mph 74% 0 in
15:09 56.7 °F 48.6 °F 30.1 in OSO 4 mph 7 mph 74% 0 in
15:14 56.8 °F 48.6 °F 30.1 in Oeste 3.6 mph 6 mph 74% 0 in
15:19 56.8 °F 48.6 °F 30.1 in ONO 3.1 mph 5.9 mph 74% 0 in
15:24 56.8 °F 48.6 °F 30.1 in NO 3 mph 6 mph 74% 0 in
15:29 56.8 °F 48.9 °F 30.1 in NO 2.9 mph 5 mph 74.3% 0 in
15:34 57 °F 49.1 °F 30.1 in NNE 2.5 mph 5 mph 74.7% 0 in
15:39 57.4 °F 49.3 °F 30.1 in NNE 2 mph 6.9 mph 74.2% 0 in
15:44 57.6 °F 49.6 °F 30.1 in NNE 2.7 mph 8.1 mph 74.8% 0 in
15:49 57.7 °F 49.5 °F 30.1 in NNE 3.6 mph 10.4 mph 74% 0 in
15:54 57.7 °F 49.6 °F 30.1 in NNE 4.4 mph 10 mph 74% 0 in
15:59 58.1 °F 50.2 °F 30.1 in North 5.4 mph 8.1 mph 75% 0 in
16:04 58.3 °F 50 °F 30.1 in NE 4.6 mph 8.5 mph 74% 0 in
16:09 58.5 °F 50 °F 30.1 in NE 3.6 mph 9 mph 74% 0 in
16:14 58.3 °F 50 °F 30.1 in NE 3.4 mph 7 mph 74% 0 in
16:19 58.1 °F 50 °F 30.1 in ENE 3.1 mph 7 mph 74.4% 0 in
16:24 58.1 °F 50.2 °F 30.1 in NE 3 mph 6 mph 75% 0 in
16:29 58.1 °F 50.4 °F 30.1 in NE 2.9 mph 4 mph 75.4% 0 in
16:34 58.3 °F 50.7 °F 30.1 in NE 1.6 mph 3.6 mph 75.9% 0 in
16:39 58.3 °F 50.5 °F 30.1 in Calm   4.6 mph 75.5% 0 in
16:44 58.1 °F 50.7 °F 30.1 in NNO 1.1 mph 5 mph 76% 0 in
16:49 58.1 °F 50.9 °F 30.1 in NO 2.4 mph 5 mph 76.9% 0 in
16:54 57.9 °F 50.7 °F 30.1 in NO 2.4 mph 5 mph 77% 0 in
16:59 57.9 °F 50.7 °F 30.1 in NNO 2.4 mph 5 mph 77% 0 in
17:04 57.9 °F 50.7 °F 30.1 in NO 2.1 mph 4 mph 77% 0 in
17:09 57.9 °F 50.7 °F 30.1 in NNO 1.8 mph 3 mph 77% 0 in
17:14 57.7 °F 50.7 °F 30.1 in NNO 1.6 mph 3 mph 77% 0 in
17:19 57.7 °F 50.7 °F 30.1 in North 1.4 mph 4.6 mph 77% 0 in
17:24 57.7 °F 50.5 °F 30.1 in NNE 1.4 mph 5 mph 77% 0 in
17:29 57.7 °F 50.7 °F 30.1 in NNE 1.4 mph 2 mph 77.4% 0 in
17:34 57.7 °F 50.9 °F 30.1 in NE 0.7 mph 2.4 mph 78% 0 in
17:39 57.7 °F 50.9 °F 30.1 in Calm   3.6 mph 78% 0 in
17:44 57.7 °F 50.5 °F 30.1 in SSE 0.9 mph 5 mph 77.1% 0 in
17:49 57.6 °F 50.4 °F 30.1 in ESE 2 mph 5 mph 77% 0 in
17:54 57.4 °F 50.4 °F 30.1 in Este 1.7 mph 3 mph 77.2% 0 in
17:59 57.4 °F 50.2 °F 30.1 in SE 1.4 mph 4.6 mph 77.1% 0 in
18:04 57 °F 49.5 °F 30.1 in SSO 1.7 mph 5 mph 76% 0 in
18:09 56.8 °F 49.3 °F 30.1 in SSO 2 mph 5.8 mph 76% 0 in
18:14 56.5 °F 48.7 °F 30.1 in SSO 2.5 mph 6 mph 75.7% 0 in
18:19 56.1 °F 48.7 °F 30.1 in SSO 3.1 mph 5 mph 76.2% 0 in
18:24 56.1 °F 48.9 °F 30.1 in Oeste 2.5 mph 4.7 mph 77% 0 in
18:29 55.9 °F 48.9 °F 30.1 in NO 1.8 mph 5 mph 77% 0 in
18:34 55.9 °F 49.1 °F 30.1 in NO 1.6 mph 3 mph 77.5% 0 in
18:39 56.1 °F 49.6 °F 30.1 in ESE 1.4 mph 3.6 mph 78.9% 0 in
18:44 56.1 °F 49.6 °F 30.1 in Este 1.4 mph 5.2 mph 79% 0 in
18:49 56.1 °F 49.8 °F 30.1 in NE 1.4 mph 5 mph 79.3% 0 in
18:54 56.1 °F 50 °F 30.1 in NE 1.6 mph 5 mph 80% 0 in
18:59 56.1 °F 50.2 °F 30.1 in Este 1.8 mph 4.6 mph 80.6% 0 in
19:04 56.1 °F 50.4 °F 30.1 in ESE 1.9 mph 5 mph 81% 0 in
19:09 56.1 °F 50.5 °F 30.1 in ESE 2 mph 5 mph 81.4% 0 in
19:14 56.1 °F 50.7 °F 30.1 in ESE 1.9 mph 5 mph 82% 0 in
19:19 55.9 °F 50.5 °F 30.1 in ESE 1.8 mph 4.6 mph 82% 0 in
19:24 55.9 °F 50.5 °F 30.1 in SE 1.9 mph 5 mph 82% 0 in
19:29 55.8 °F 50.4 °F 30.1 in SSE 2 mph 4.6 mph 82% 0 in
19:34 55.8 °F 50 °F 30.1 in SSE 2 mph 5 mph 81.1% 0 in
19:39 55.8 °F 49.8 °F 30.1 in SSO 2 mph 5.2 mph 80.5% 0 in
19:44 55.8 °F 49.6 °F 30.1 in SO 2 mph 5 mph 80% 0 in
19:49 55.8 °F 49.6 °F 30.1 in SE 2 mph 4.7 mph 80% 0 in
19:54 55.8 °F 49.6 °F 30.1 in SSE 1.9 mph 5 mph 80% 0 in
19:59 55.8 °F 49.6 °F 30.1 in SSE 1.8 mph 5 mph 79.8% 0 in
20:04 55.8 °F 49.6 °F 30.1 in Este 1.9 mph 5.2 mph 80% 0 in
20:09 55.8 °F 49.6 °F 30.1 in SE 2 mph 6.9 mph 80% 0 in
20:14 55.8 °F 49.6 °F 30.1 in ESE 2.4 mph 7 mph 80% 0 in
20:19 55.8 °F 49.6 °F 30.1 in Este 2.9 mph 6.9 mph 80% 0 in
20:24 55.8 °F 49.6 °F 30.1 in Este 2.5 mph 7 mph 80% 0 in
20:29 55.8 °F 50 °F 30.1 in ESE 2 mph 5 mph 80.9% 0 in
20:34 55.6 °F 49.8 °F 30.1 in ESE 1.9 mph 4.6 mph 81% 0 in
20:39 55.6 °F 49.8 °F 30.1 in ESE 1.8 mph 5 mph 81% 0 in
20:44 55.6 °F 49.8 °F 30.1 in SSE 1.6 mph 4 mph 81.3% 0 in
20:49 55.6 °F 50.2 °F 30.1 in SE 1.4 mph 3 mph 82% 0 in
20:54 55.6 °F 50.2 °F 30.1 in SE 0.7 mph 2 mph 82% 0 in
20:59 55.4 °F 50 °F 30.1 in Calm   2.9 mph 82% 0 in
21:04 55.6 °F 50.2 °F 30.1 in Calm   3 mph 82% 0 in
21:09 55.6 °F 50.2 °F 30.1 in Calm   1 mph 82% 0 in
21:14 55.6 °F 50.2 °F 30.1 in Calm   3.1 mph 82% 0 in
21:19 55.6 °F 50.2 °F 30.1 in Calm   3.5 mph 82% 0 in
21:24 55.6 °F 50.2 °F 30.1 in Este 0.6 mph 4.3 mph 82% 0 in
21:29 55.4 °F 50 °F 30.1 in Oeste 1.4 mph 5 mph 82% 0 in
21:34 55.2 °F 49.8 °F 30.1 in Oeste 1.7 mph 5 mph 82% 0 in
21:39 55.2 °F 49.8 °F 30.1 in Oeste 2 mph 2.3 mph 82% 0 in
21:44 55.2 °F 49.8 °F 30.1 in Oeste 1.1 mph   82% 0 in
21:49 55 °F 49.6 °F 30.1 in Calm   2.9 mph 82% 0 in
21:54 55 °F 49.6 °F 30.1 in Calm   3 mph 82.1% 0 in
21:59 55 °F 49.6 °F 30.1 in Calm   2 mph 82% 0 in
22:04 54.9 °F 49.6 °F 30.1 in Calm   3.5 mph 82.2% 0 in
22:09 54.9 °F 49.8 °F 30.1 in Calm   6.9 mph 83% 0 in
22:14 54.7 °F 49.6 °F 30.1 in Este 1.1 mph 7 mph 83% 0 in
22:19 54.3 °F 49.5 °F 30.1 in Este 2.4 mph 5.2 mph 83.5% 0 in
22:24 54.1 °F 49.5 °F 30.1 in Este 2.2 mph 5 mph 84% 0 in
22:29 54.1 °F 49.5 °F 30.1 in Este 2 mph 4.6 mph 84.5% 0 in
22:34 54 °F 49.5 °F 30.1 in ESE 2 mph 5 mph 85% 0 in
22:39 53.8 °F 49.5 °F 30.1 in ESE 2 mph 4 mph 85% 0 in
22:44 53.8 °F 49.5 °F 30.1 in ESE 1.1 mph 2.4 mph 85% 0 in
22:49 53.8 °F 49.5 °F 30.1 in Calm   2.3 mph 85.1% 0 in
22:54 53.8 °F 49.5 °F 30.1 in Calm   1.2 mph 85% 0 in
22:59 53.8 °F 49.5 °F 30.1 in Calm   1 mph 85% 0 in
23:04 53.8 °F 49.5 °F 30.1 in Calm     85% 0 in
23:09 53.8 °F 49.6 °F 30.1 in Calm   2.3 mph 85.6% 0 in
23:14 53.8 °F 49.6 °F 30.1 in Calm   2 mph 86% 0 in
23:19 53.8 °F 49.8 °F 30.1 in Calm     86% 0 in
23:24 54 °F 49.8 °F 30.1 in Calm     86% 0 in
23:29 54 °F 49.8 °F 30.1 in Calm   2 mph 86% 0 in
23:34 54 °F 49.8 °F 30.1 in SO 0.6 mph 3.5 mph 86% 0 in
23:39 54 °F 49.8 °F 30.1 in SO 1.4 mph 3 mph 86% 0 in
23:44 53.8 °F 49.6 °F 30.1 in SO 1.6 mph 3 mph 86% 0 in
23:49 53.8 °F 49.6 °F 30.1 in OSO 1.8 mph 3.6 mph 86% 0 in
23:54 53.6 °F 49.6 °F 30.1 in OSO 1.8 mph 4 mph 86.5% 0 in
23:59 53.4 °F 49.6 °F 30.1 in OSO 1.8 mph 4 mph 87% 0 in
Murcia-Puente Tocinos, España
Compliments of Weather Underground - 3 mb

La estación de MeteoMurcia.com, publica sus datos en los siguientes proyectos:

Weather Underground PWS IMURCIAP2 Meteoclimatic www.awekas.at

W3Counter
Web Analytics